Weather at Sundsvall-Härnösand Airport

Public forecast

Using degrees Celsius for public forecast. Weather courtesy of forecast.io.

Current aviation weather report (METAR) for Sundsvall-Härnösand Airport

Retrieved 2022/07/04 03:20 UTC (8 minutes ago):

ESNN 040320Z AUTO 34003KT 9999 NCD 12/11 Q1014

Aviation forecast (TAF) for Sundsvall-Härnösand Airport

Forecast is more than 12 hours old.

Retrieved 2016/05/29 09:33 UTC (6 years ago):

TAF TAF ESNN 290830Z 2909/3018 07006KT 9999 SCT045 BECMG 2913/2915 14010KT